Time;durP1;ratioP1;P1;durP2;ratioP2;P2;SDS_P1;SDS_P2;PMS_P1;PMS_P2;Temp;Humidity;BMP_temperature;BMP_pressure;BME280_temperature;BME280_humidity;BME280_pressure;Samples;Min_cycle;Max_cycle;Signal;HPM_P1;HPM_P2
2022/02/12 00:01:01;;;;;;;3.20;1.33;;;;;;;2.84;62.50;99045.84;6229251;28;20244;-72
2022/02/12 00:04:04;;;;;;;1.27;1.07;;;;;;;2.86;62.88;99051.88;6228212;28;20264;-73
2022/02/12 00:07:06;;;;;;;2.30;1.47;;;;;;;2.87;63.00;99053.59;6227827;28;20240;-72
2022/02/12 00:10:09;;;;;;;2.03;1.33;;;;;;;2.87;63.43;99050.13;6223211;28;20238;-72
2022/02/12 00:13:11;;;;;;;2.97;1.60;;;;;;;2.86;63.52;99043.22;6211308;28;20244;-72
2022/02/12 00:16:13;;;;;;;3.93;1.87;;;;;;;2.82;63.75;99047.63;6218565;28;20268;-73
2022/02/12 00:19:15;;;;;;;2.63;1.37;;;;;;;2.80;63.88;99056.38;6227717;28;20447;-72
2022/02/12 00:22:18;;;;;;;3.17;1.70;;;;;;;2.79;64.06;99070.34;6228790;28;20241;-72
2022/02/12 00:25:20;;;;;;;2.50;1.50;;;;;;;2.77;64.03;99077.34;6228548;28;20224;-72
2022/02/12 00:28:23;;;;;;;2.80;1.60;;;;;;;2.75;64.38;99072.16;6211703;28;20362;-71
2022/02/12 00:31:25;;;;;;;4.33;2.23;;;;;;;2.74;64.70;99077.41;6218712;28;20234;-72
2022/02/12 00:34:27;;;;;;;6.73;1.83;;;;;;;2.71;64.95;99088.78;6224636;28;20231;-72
2022/02/12 00:37:30;;;;;;;2.93;1.90;;;;;;;2.69;64.63;99095.81;6228954;28;20240;-72
2022/02/12 00:40:32;;;;;;;4.57;1.93;;;;;;;2.69;65.68;99087.13;6218099;28;20362;-72
2022/02/12 00:43:34;;;;;;;3.77;2.00;;;;;;;2.65;65.61;99081.13;6206138;28;20252;-71
2022/02/12 00:46:37;;;;;;;5.47;2.00;;;;;;;2.63;65.53;99080.31;6210372;28;20257;-73
2022/02/12 00:49:40;;;;;;;4.87;1.80;;;;;;;2.61;65.64;99084.69;6228325;28;20225;-71
2022/02/12 00:52:42;;;;;;;4.03;1.63;;;;;;;2.58;65.62;99093.47;6227572;28;20318;-72
2022/02/12 00:55:44;;;;;;;4.33;1.90;;;;;;;2.60;66.37;99096.88;6227592;28;20733;-73
2022/02/12 00:58:47;;;;;;;3.93;1.90;;;;;;;2.54;66.13;99107.47;6226455;28;20232;-72
2022/02/12 01:01:49;;;;;;;7.90;1.87;;;;;;;2.53;66.34;99102.28;6228735;28;20230;-70
2022/02/12 01:04:52;;;;;;;5.13;2.10;;;;;;;2.51;66.31;99110.13;6228354;28;20241;-73
2022/02/12 01:07:54;;;;;;;2.80;1.70;;;;;;;2.53;66.41;99116.16;6227745;28;20242;-72
2022/02/12 01:10:56;;;;;;;5.37;1.97;;;;;;;2.55;66.22;99124.81;6226384;28;20372;-72
2022/02/12 01:13:58;;;;;;;4.40;2.27;;;;;;;2.58;66.51;99113.47;6226665;28;20327;-72
2022/02/12 01:17:01;;;;;;;5.00;2.20;;;;;;;2.59;66.41;99109.97;6228384;28;20234;-71
2022/02/12 01:20:04;;;;;;;4.10;2.27;;;;;;;2.56;66.20;99113.50;6227434;28;20232;-72
2022/02/12 01:23:07;;;;;;;5.23;2.60;;;;;;;2.57;66.41;99127.38;6226259;28;20237;-73
2022/02/12 01:26:09;;;;;;;3.80;1.87;;;;;;;2.55;66.68;99135.22;6218447;28;20223;-72
2022/02/12 01:29:11;;;;;;;3.20;2.20;;;;;;;2.54;67.00;99130.91;6227300;28;20229;-73
2022/02/12 01:32:14;;;;;;;2.37;1.90;;;;;;;2.53;67.17;99134.41;6217694;28;20251;-73
2022/02/12 01:35:16;;;;;;;4.67;2.43;;;;;;;2.53;67.73;99134.41;6214729;28;20530;-72
2022/02/12 01:38:18;;;;;;;2.70;2.00;;;;;;;2.51;68.02;99132.72;6226467;28;20233;-73
2022/02/12 01:41:22;;;;;;;4.20;2.73;;;;;;;2.49;68.00;99139.75;6226295;28;20308;-72
2022/02/12 01:44:33;;;;;;;3.93;2.10;;;;;;;2.50;68.36;99136.22;6227141;28;20243;-73
2022/02/12 01:47:35;;;;;;;8.50;2.77;;;;;;;2.48;68.85;99141.50;6226494;28;20255;-72
2022/02/12 01:50:37;;;;;;;5.13;2.30;;;;;;;2.44;68.89;99136.38;6209911;28;20235;-72
2022/02/12 01:53:40;;;;;;;4.93;2.20;;;;;;;2.42;69.05;99148.59;6225994;28;20248;-72
2022/02/12 01:56:45;;;;;;;5.53;2.80;;;;;;;2.42;69.04;99143.38;6227159;28;20228;-73
2022/02/12 01:59:47;;;;;;;3.53;2.50;;;;;;;2.39;68.89;99146.06;6225746;28;20232;-72
2022/02/12 02:02:50;;;;;;;4.77;2.60;;;;;;;2.38;69.52;99146.97;6227219;28;20229;-73
2022/02/12 02:05:55;;;;;;;5.53;2.53;;;;;;;2.37;69.42;99146.09;6224951;28;20359;-73
2022/02/12 02:08:59;;;;;;;4.93;2.63;;;;;;;2.36;69.52;99160.03;6227036;28;20227;-73
2022/02/12 02:12:02;;;;;;;3.20;2.40;;;;;;;2.36;69.91;99162.63;6205916;28;20265;-72
2022/02/12 02:15:07;;;;;;;4.90;2.50;;;;;;;2.36;69.93;99172.19;6225819;28;20292;-72
2022/02/12 02:18:09;;;;;;;4.77;2.20;;;;;;;2.34;69.95;99182.63;6226325;28;20237;-72
2022/02/12 02:21:15;;;;;;;3.23;2.07;;;;;;;2.33;70.38;99160.09;6224958;28;20228;-72
2022/02/12 02:24:19;;;;;;;3.83;2.37;;;;;;;2.33;70.22;99175.72;6226246;28;20866;-72
2022/02/12 02:27:22;;;;;;;7.60;2.40;;;;;;;2.35;70.83;99180.91;6223931;28;20244;-71
2022/02/12 02:30:27;;;;;;;6.33;3.03;;;;;;;2.32;71.04;99176.59;6225719;28;20234;-72
2022/02/12 02:33:31;;;;;;;6.10;2.60;;;;;;;2.30;71.17;99180.97;6226685;28;20223;-72
2022/02/12 02:36:34;;;;;;;3.03;2.20;;;;;;;2.27;71.20;99185.44;6226248;28;20400;-72
2022/02/12 02:39:36;;;;;;;4.83;2.40;;;;;;;2.28;71.03;99177.59;6223282;28;20330;-72
2022/02/12 02:42:43;;;;;;;4.07;2.10;;;;;;;2.30;70.74;99180.97;6200481;28;20236;-71
2022/02/12 02:45:45;;;;;;;4.60;2.67;;;;;;;2.30;70.59;99188.81;6214957;28;20233;-72
2022/02/12 02:48:47;;;;;;;3.80;1.80;;;;;;;2.32;70.43;99186.16;6220392;28;20236;-72
2022/02/12 02:58:36;;;;;;;6.00;3.07;;;;;;;2.27;70.38;99194.09;6225408;28;20241;-72
2022/02/12 03:01:39;;;;;;;3.90;2.43;;;;;;;2.26;70.18;99194.13;6227338;28;20719;-72
2022/02/12 03:04:41;;;;;;;5.77;2.90;;;;;;;2.23;70.51;99189.84;6224019;28;20237;-72
2022/02/12 03:07:43;;;;;;;3.93;2.60;;;;;;;2.21;70.56;99181.19;6225594;28;20534;-71
2022/02/12 03:10:45;;;;;;;3.90;2.73;;;;;;;2.20;70.08;99185.53;6217005;28;20347;-72
2022/02/12 03:13:49;;;;;;;3.43;2.40;;;;;;;2.18;70.01;99194.31;6208224;28;20242;-71
2022/02/12 03:16:51;;;;;;;3.97;2.40;;;;;;;2.16;70.06;99202.16;6225868;28;20232;-72
2022/02/12 03:19:54;;;;;;;5.27;3.03;;;;;;;2.16;70.43;99203.91;6225364;28;20244;-73
2022/02/12 03:22:56;;;;;;;7.20;2.73;;;;;;;2.18;69.99;99207.34;6224503;28;20235;-73
2022/02/12 03:25:58;;;;;;;6.20;2.67;;;;;;;2.19;70.07;99204.69;6226507;28;20246;-73
2022/02/12 03:29:01;;;;;;;6.77;2.77;;;;;;;2.16;70.76;99207.38;6225632;28;20320;-72
2022/02/12 03:32:03;;;;;;;5.90;2.67;;;;;;;2.08;71.24;99200.63;6224741;28;20323;-73
2022/02/12 03:35:06;;;;;;;4.53;2.80;;;;;;;2.01;71.95;99201.63;6217433;28;20331;-72
2022/02/12 03:38:11;;;;;;;5.90;3.13;;;;;;;2.00;72.08;99202.50;6225157;28;20228;-73
2022/02/12 03:41:13;;;;;;;5.63;3.37;;;;;;;2.00;71.74;99205.97;6210744;28;20233;-73
2022/02/12 03:44:15;;;;;;;6.60;2.87;;;;;;;1.99;72.28;99217.28;6223912;28;20326;-71
2022/02/12 03:47:17;;;;;;;4.77;2.90;;;;;;;1.96;73.28;99226.91;6225255;28;20228;-72
2022/02/12 03:50:20;;;;;;;6.13;2.83;;;;;;;1.94;72.90;99232.13;6225658;28;20247;-72
2022/02/12 03:53:23;;;;;;;4.40;2.70;;;;;;;1.96;73.23;99229.50;6225226;28;20287;-72
2022/02/12 03:56:25;;;;;;;8.37;3.90;;;;;;;1.98;72.91;99232.94;6225249;28;20228;-73
2022/02/12 03:59:27;;;;;;;6.23;3.43;;;;;;;1.93;73.31;99230.41;6224605;28;20273;-72
2022/02/12 04:02:29;;;;;;;6.10;3.50;;;;;;;1.92;73.59;99236.50;6229382;28;20223;-74
2022/02/12 04:05:33;;;;;;;6.97;3.60;;;;;;;1.89;73.57;99236.59;6227942;28;20229;-74
2022/02/12 04:08:35;;;;;;;6.80;4.13;;;;;;;1.87;74.31;99240.97;6229574;28;20596;-73
2022/02/12 04:11:40;;;;;;;7.80;3.73;;;;;;;1.83;75.10;99224.53;6211888;28;20232;-73
2022/02/12 04:14:42;;;;;;;7.43;4.10;;;;;;;1.80;75.55;99241.97;6224013;28;20223;-73
2022/02/12 04:17:45;;;;;;;7.40;4.37;;;;;;;1.75;75.27;99244.66;6227830;28;20247;-73
2022/02/12 04:20:48;;;;;;;11.37;4.40;;;;;;;1.71;75.71;99245.59;6229175;28;20227;-73
2022/02/12 04:23:50;;;;;;;9.37;4.33;;;;;;;1.72;75.84;99241.25;6228370;28;20236;-72
2022/02/12 04:26:52;;;;;;;8.93;3.33;;;;;;;1.70;76.14;99246.50;6228622;28;20648;-73
2022/02/12 04:29:54;;;;;;;8.03;3.93;;;;;;;1.69;75.81;99247.41;6229490;28;20241;-73
2022/02/12 04:32:57;;;;;;;6.30;4.20;;;;;;;1.69;75.70;99255.22;6228234;28;20239;-73
2022/02/12 04:35:59;;;;;;;7.53;3.97;;;;;;;1.65;76.36;99253.53;6209960;28;20243;-71
2022/02/12 04:39:03;;;;;;;8.80;3.70;;;;;;;1.57;76.45;99255.44;6224185;28;20298;-72
2022/02/12 04:42:11;;;;;;;7.63;4.47;;;;;;;1.50;76.81;99251.22;6224767;28;20638;-74
2022/02/12 04:45:13;;;;;;;7.93;4.70;;;;;;;1.39;77.79;99256.66;6229063;28;20233;-72
2022/02/12 04:48:15;;;;;;;10.23;4.73;;;;;;;1.33;78.26;99256.75;6230310;28;20226;-71
2022/02/12 04:51:18;;;;;;;7.43;4.40;;;;;;;1.26;78.78;99249.09;6229225;28;20739;-72
2022/02/12 04:54:20;;;;;;;5.97;4.20;;;;;;;1.22;79.67;99256.06;6229665;28;20204;-73
2022/02/12 04:57:23;;;;;;;6.20;4.03;;;;;;;1.22;79.83;99247.41;6229470;28;20349;-74
2022/02/12 05:00:25;;;;;;;8.27;4.07;;;;;;;1.16;80.46;99251.00;6229021;28;20223;-73
2022/02/12 05:03:27;;;;;;;6.67;4.47;;;;;;;1.17;80.70;99260.50;6230867;28;20231;-73
2022/02/12 05:06:29;;;;;;;9.87;4.87;;;;;;;1.21;79.97;99256.09;6229565;28;20235;-73
2022/02/12 05:09:34;;;;;;;8.23;4.70;;;;;;;1.24;79.25;99267.31;6228366;28;20232;-74
2022/02/12 05:12:37;;;;;;;10.53;4.40;;;;;;;1.31;79.86;99265.44;6208079;28;20241;-72
2022/02/12 05:15:39;;;;;;;6.90;4.17;;;;;;;1.28;79.12;99260.31;6215667;28;20235;-73
2022/02/12 05:18:41;;;;;;;10.13;4.60;;;;;;;1.28;80.08;99258.59;6212719;28;20230;-73
2022/02/12 05:21:43;;;;;;;10.23;4.57;;;;;;;1.21;79.65;99256.94;6229371;28;20234;-74
2022/02/12 05:24:46;;;;;;;8.07;3.83;;;;;;;1.16;79.75;99247.53;6230744;28;20228;-72
2022/02/12 05:27:48;;;;;;;7.13;4.27;;;;;;;1.02;80.72;99242.56;6230467;28;20232;-72
2022/02/12 05:30:50;;;;;;;6.87;4.10;;;;;;;0.89;81.27;99239.34;6231098;28;20238;-73
2022/02/12 05:33:53;;;;;;;6.70;4.77;;;;;;;0.84;80.90;99245.47;6228578;28;20326;-73
2022/02/12 05:36:55;;;;;;;8.10;4.37;;;;;;;0.83;80.51;99243.75;6244584;28;20235;-73
2022/02/12 05:39:57;;;;;;;7.30;4.00;;;;;;;0.87;79.90;99245.44;6225465;28;20239;-72
2022/02/12 05:43:00;;;;;;;10.20;4.47;;;;;;;0.86;79.37;99247.16;6210776;28;20240;-71
2022/02/12 05:46:03;;;;;;;7.50;4.47;;;;;;;0.86;78.99;99241.97;6228055;28;20666;-73
2022/02/12 05:49:07;;;;;;;6.73;4.67;;;;;;;0.89;78.88;99241.94;6226736;28;20369;-73
2022/02/12 05:52:09;;;;;;;7.43;4.07;;;;;;;0.88;79.04;99247.16;6228406;28;20234;-74
2022/02/12 05:55:11;;;;;;;7.10;3.87;;;;;;;0.82;79.03;99255.88;6225703;28;20235;-74
2022/02/12 05:58:13;;;;;;;5.37;3.40;;;;;;;0.74;79.52;99266.41;6226702;28;20238;-72
2022/02/12 06:01:15;;;;;;;6.40;3.83;;;;;;;0.69;79.30;99265.63;6225277;28;20227;-73
2022/02/12 06:04:17;;;;;;;5.13;3.80;;;;;;;0.65;79.28;99260.50;6227222;28;20238;-73
2022/02/12 06:07:19;;;;;;;6.97;3.60;;;;;;;0.66;79.09;99265.66;6225089;28;20246;-72
2022/02/12 06:10:22;;;;;;;9.53;4.17;;;;;;;0.64;79.56;99266.56;6221978;28;20269;-73
2022/02/12 06:13:24;;;;;;;4.80;3.50;;;;;;;0.48;80.10;99281.53;6226597;28;20668;-73
2022/02/12 06:16:27;;;;;;;6.37;3.70;;;;;;;0.36;80.30;99279.09;6225439;28;20734;-73
2022/02/12 06:19:30;;;;;;;6.90;3.77;;;;;;;0.20;80.38;99278.44;6226376;28;20703;-73
2022/02/12 06:22:36;;;;;;;8.13;3.70;;;;;;;0.09;80.57;99282.06;6225117;28;20586;-73
2022/02/12 06:25:38;;;;;;;5.43;3.67;;;;;;;0.03;81.06;99289.91;6224985;28;20235;-73
2022/02/12 06:28:41;;;;;;;5.77;3.77;;;;;;;-0.05;81.47;99297.78;6226787;28;20601;-73
2022/02/12 06:31:43;;;;;;;6.50;3.30;;;;;;;-0.11;81.30;99297.88;6226308;28;20742;-73
2022/02/12 06:34:45;;;;;;;4.40;3.13;;;;;;;-0.18;81.10;99299.66;6226098;28;21024;-73
2022/02/12 06:37:47;;;;;;;4.73;3.43;;;;;;;-0.25;81.54;99292.84;6226326;28;20594;-73
2022/02/12 06:40:49;;;;;;;6.80;3.13;;;;;;;-0.31;81.75;99302.44;6224799;28;20703;-73
2022/02/12 06:43:51;;;;;;;4.77;3.37;;;;;;;-0.43;81.65;99296.50;6224207;28;20293;-73
2022/02/12 06:46:54;;;;;;;6.97;3.47;;;;;;;-0.51;82.02;99295.72;6224332;28;20223;-73
2022/02/12 06:49:56;;;;;;;7.17;3.93;;;;;;;-0.45;82.09;99298.25;6224885;28;20355;-72
2022/02/12 06:52:58;;;;;;;6.27;4.20;;;;;;;-0.42;81.98;99295.63;6225537;28;20745;-73
2022/02/12 06:56:02;;;;;;;5.03;3.57;;;;;;;-0.41;82.81;99304.28;6224281;28;20603;-73
2022/02/12 06:59:04;;;;;;;6.67;3.10;;;;;;;-0.42;82.32;99307.72;6224983;28;20235;-74
2022/02/12 07:02:06;;;;;;;9.27;3.30;;;;;;;-0.45;82.31;99316.41;6226278;28;20247;-74
2022/02/12 07:05:08;;;;;;;5.43;3.23;;;;;;;-0.41;82.13;99328.47;6225795;28;20227;-73
2022/02/12 07:08:11;;;;;;;4.97;3.20;;;;;;;-0.28;82.25;99341.28;6223846;28;20607;-73
2022/02/12 07:11:13;;;;;;;5.50;3.30;;;;;;;-0.09;82.31;99337.63;6211905;28;20228;-73
2022/02/12 07:14:15;;;;;;;7.40;3.43;;;;;;;0.05;81.90;99353.03;6212246;28;20265;-73
2022/02/12 07:17:17;;;;;;;7.80;3.13;;;;;;;0.20;81.33;99355.47;6218676;28;20244;-74
2022/02/12 07:20:20;;;;;;;6.40;3.43;;;;;;;0.33;81.72;99354.44;6225575;28;20223;-74
2022/02/12 07:23:22;;;;;;;5.33;3.10;;;;;;;0.55;81.15;99358.47;6224319;28;20231;-74
2022/02/12 07:26:25;;;;;;;3.93;2.90;;;;;;;0.65;80.87;99351.41;6225989;28;20727;-74
2022/02/12 07:29:27;;;;;;;7.93;3.73;;;;;;;0.64;80.98;99367.88;6225106;28;20231;-73
2022/02/12 07:32:29;;;;;;;7.67;4.63;;;;;;;0.74;80.96;99362.53;6208871;28;20301;-74
2022/02/12 07:35:31;;;;;;;4.40;3.00;;;;;;;0.94;79.97;99354.44;6226266;28;20722;-73
2022/02/12 07:38:35;;;;;;;5.00;2.90;;;;;;;0.96;80.00;99357.91;6220614;28;20240;-74
2022/02/12 07:41:37;;;;;;;5.33;2.87;;;;;;;0.99;80.13;99364.78;6211136;28;20338;-73
2022/02/12 07:44:39;;;;;;;6.30;3.90;;;;;;;1.06;80.03;99371.63;6222236;28;20235;-74
2022/02/12 07:47:41;;;;;;;7.73;3.50;;;;;;;1.10;80.02;99373.25;6229976;28;20236;-73
2022/02/12 07:50:44;;;;;;;9.03;4.63;;;;;;;1.23;80.05;99377.41;6235030;28;20317;-74
2022/02/12 07:53:46;;;;;;;6.17;4.10;;;;;;;1.31;78.67;99367.72;6235388;28;20277;-73
2022/02/12 07:56:53;;;;;;;6.63;4.70;;;;;;;1.37;78.51;99370.25;6229668;28;20258;-73
2022/02/12 07:59:56;;;;;;;5.93;3.43;;;;;;;1.38;78.06;99374.56;6229555;28;20250;-74
2022/02/12 08:02:58;;;;;;;7.33;3.50;;;;;;;1.34;78.57;99377.22;6229635;28;20330;-74
2022/02/12 08:06:01;;;;;;;5.33;3.47;;;;;;;1.28;78.66;99379.94;6229459;28;20326;-73
2022/02/12 08:09:03;;;;;;;8.17;3.63;;;;;;;1.37;78.22;99378.06;6229000;28;20235;-74
2022/02/12 08:12:15;;;;;;;6.67;3.97;;;;;;;1.46;78.18;99384.84;6228341;28;20215;-74
2022/02/12 08:15:17;;;;;;;4.83;3.40;;;;;;;1.52;77.98;99384.72;6229397;28;20750;-74
2022/02/12 08:18:19;;;;;;;7.47;3.53;;;;;;;1.60;77.69;99390.66;6229597;28;20743;-73
2022/02/12 08:21:21;;;;;;;5.33;4.07;;;;;;;1.65;77.22;99394.06;6229203;28;20246;-73
2022/02/12 08:24:24;;;;;;;5.77;4.00;;;;;;;1.69;76.64;99395.75;6229032;28;20227;-73
2022/02/12 08:27:28;;;;;;;6.30;3.70;;;;;;;1.83;75.86;99398.94;6230545;28;20284;-73
2022/02/12 08:30:30;;;;;;;4.70;3.47;;;;;;;1.97;74.81;99406.50;6228989;28;20252;-73
2022/02/12 08:33:32;;;;;;;7.70;3.77;;;;;;;2.10;74.35;99402.78;6229279;28;20657;-73
2022/02/12 08:36:34;;;;;;;6.20;3.60;;;;;;;2.23;73.08;99395.59;6228646;28;20244;-73
2022/02/12 08:39:37;;;;;;;5.77;3.87;;;;;;;2.39;71.98;99396.16;6227328;28;20293;-73
2022/02/12 08:42:41;;;;;;;7.33;3.53;;;;;;;2.61;71.43;99397.44;6215683;28;20239;-73
2022/02/12 08:45:43;;;;;;;6.63;3.60;;;;;;;2.76;70.45;99398.88;6228571;28;20699;-73
2022/02/12 08:48:46;;;;;;;7.30;3.47;;;;;;;2.95;68.58;99387.16;6228923;28;20703;-73
2022/02/12 08:51:48;;;;;;;4.73;3.20;;;;;;;3.23;68.00;99389.97;6228221;28;20229;-73
2022/02/12 08:54:51;;;;;;;4.30;2.70;;;;;;;3.45;67.30;99393.78;6227875;28;20237;-73
2022/02/12 08:57:53;;;;;;;3.40;2.50;;;;;;;3.66;67.53;99389.81;6211054;28;20238;-74
2022/02/12 09:00:55;;;;;;;3.90;2.77;;;;;;;3.77;66.60;99393.00;6228269;28;20226;-73
2022/02/12 09:03:59;;;;;;;6.20;2.97;;;;;;;3.96;64.78;99382.94;6228251;28;20232;-73
2022/02/12 09:07:02;;;;;;;5.37;2.93;;;;;;;4.16;64.53;99377.16;6227164;28;20768;-74
2022/02/12 09:10:05;;;;;;;4.23;2.33;;;;;;;4.37;62.47;99381.81;6222077;28;20238;-74
2022/02/12 09:13:08;;;;;;;3.10;2.70;;;;;;;4.65;62.13;99376.63;6210807;28;20806;-73
2022/02/12 09:16:10;;;;;;;3.00;1.90;;;;;;;4.80;61.56;99374.41;6227726;28;20633;-73
2022/02/12 09:19:12;;;;;;;3.20;2.33;;;;;;;4.81;60.72;99383.13;6226192;28;20726;-73
2022/02/12 09:22:15;;;;;;;2.50;1.77;;;;;;;4.76;62.26;99383.28;6228059;28;20313;-73
2022/02/12 09:25:17;;;;;;;3.50;1.70;;;;;;;5.05;61.93;99390.25;6226905;28;20243;-73
2022/02/12 09:28:20;;;;;;;2.97;1.57;;;;;;;5.16;58.38;99382.06;6226877;28;20748;-72
2022/02/12 09:31:22;;;;;;;3.87;1.90;;;;;;;5.39;56.23;99386.56;6227807;28;20239;-73
2022/02/12 09:34:24;;;;;;;2.97;2.40;;;;;;;5.45;57.10;99383.75;6228345;28;20227;-74
2022/02/12 09:37:26;;;;;;;4.70;1.63;;;;;;;5.22;58.35;99386.22;6228323;28;20254;-72
2022/02/12 09:40:31;;;;;;;3.07;1.50;;;;;;;5.03;59.46;99386.81;6226060;28;20228;-73
2022/02/12 09:43:49;;;;;;;2.20;1.80;;;;;;;4.65;61.21;99392.34;6212480;28;20230;-73
2022/02/12 09:47:10;;;;;;;2.90;1.67;;;;;;;4.38;62.95;99392.22;6229152;28;20242;-73
2022/02/12 09:50:14;;;;;;;2.87;1.90;;;;;;;4.57;63.01;99387.34;6229863;28;20234;-71
2022/02/12 09:53:17;;;;;;;1.40;1.30;;;;;;;4.15;64.50;99378.94;6232257;28;20831;-71
2022/02/12 09:56:19;;;;;;;3.37;1.53;;;;;;;3.59;66.17;99389.06;6235844;28;20706;-72
2022/02/12 09:59:21;;;;;;;3.87;1.40;;;;;;;3.30;67.27;99391.53;6234311;28;20281;-73
2022/02/12 10:02:23;;;;;;;1.40;1.03;;;;;;;3.20;67.38;99390.91;6235104;28;20691;-72
2022/02/12 10:05:28;;;;;;;3.43;1.63;;;;;;;3.14;67.86;99395.41;6237200;28;20238;-73
2022/02/12 10:08:31;;;;;;;1.27;1.10;;;;;;;3.05;67.97;99398.22;6239210;28;20238;-73
2022/02/12 10:11:51;;;;;;;2.80;1.60;;;;;;;3.05;68.91;99395.63;6227658;28;20230;-74
2022/02/12 10:14:53;;;;;;;3.17;1.43;;;;;;;3.09;68.89;99392.06;6238832;28;20228;-73
2022/02/12 10:17:59;;;;;;;2.10;1.30;;;;;;;3.19;68.93;99393.56;6236750;28;20230;-73
2022/02/12 10:21:03;;;;;;;2.40;1.40;;;;;;;3.33;68.64;99394.94;6232577;28;20224;-72
2022/02/12 10:24:05;;;;;;;1.83;1.20;;;;;;;3.37;68.71;99387.03;6234535;28;20218;-73
2022/02/12 10:27:07;;;;;;;2.73;1.53;;;;;;;3.37;68.95;99382.69;6230341;28;20246;-73
2022/02/12 10:30:10;;;;;;;2.80;1.37;;;;;;;3.43;69.02;99371.22;6217020;28;20216;-74
2022/02/12 10:33:13;;;;;;;2.80;1.30;;;;;;;3.47;69.06;99376.34;6228689;28;20215;-73
2022/02/12 10:36:18;;;;;;;3.90;1.30;;;;;;;3.58;69.16;99376.09;6215747;28;20316;-73
2022/02/12 10:39:20;;;;;;;3.80;1.43;;;;;;;3.74;68.58;99364.34;6209069;28;20240;-73
2022/02/12 10:42:25;;;;;;;1.40;1.10;;;;;;;3.86;68.49;99369.25;6206443;28;20759;-73
2022/02/12 10:45:34;;;;;;;3.33;1.30;;;;;;;3.97;67.75;99364.63;6224759;28;20245;-74
2022/02/12 10:48:40;;;;;;;2.60;1.53;;;;;;;4.08;65.45;99353.88;6225654;28;20289;-74
2022/02/12 10:51:46;;;;;;;1.80;1.40;;;;;;;4.17;65.48;99351.00;6225621;28;20303;-74
2022/02/12 10:54:51;;;;;;;1.80;1.63;;;;;;;4.20;63.34;99342.19;6225288;28;20241;-73
2022/02/12 10:57:55;;;;;;;1.60;1.50;;;;;;;4.22;62.63;99340.41;6226812;28;20246;-73
2022/02/12 11:00:59;;;;;;;2.00;1.40;;;;;;;4.18;62.43;99342.28;6226089;28;20236;-74
2022/02/12 11:04:02;;;;;;;1.53;1.30;;;;;;;4.22;62.50;99345.63;6225728;28;20242;-72
2022/02/12 11:07:05;;;;;;;3.23;1.70;;;;;;;4.24;61.59;99339.47;6225742;28;20237;-74
2022/02/12 11:10:08;;;;;;;2.27;1.77;;;;;;;4.24;59.84;99328.16;6225014;28;20229;-73
2022/02/12 11:13:10;;;;;;;1.97;1.43;;;;;;;4.27;59.65;99321.09;6230163;28;20329;-73
2022/02/12 11:16:12;;;;;;;2.37;1.37;;;;;;;4.63;58.87;99324.38;6232586;28;20276;-72
2022/02/12 11:19:16;;;;;;;1.87;1.20;;;;;;;4.72;57.90;99310.16;6212681;28;20242;-73
2022/02/12 11:22:19;;;;;;;3.03;1.50;;;;;;;4.98;57.50;99306.75;6229127;28;20242;-73
2022/02/12 11:25:37;;;;;;;1.93;1.50;;;;;;;5.67;54.86;99294.84;6230986;28;20735;-73
2022/02/12 11:28:41;;;;;;;2.43;1.53;;;;;;;5.95;53.47;99298.25;6221631;28;20255;-73
2022/02/12 11:32:03;;;;;;;2.00;1.20;;;;;;;5.92;52.91;99288.72;6224100;28;20254;-75
2022/02/12 11:35:08;;;;;;;2.10;1.60;;;;;;;5.80;53.58;99286.50;6212611;28;20248;-74
2022/02/12 11:38:33;;;;;;;3.30;1.50;;;;;;;5.68;51.67;99281.72;6230293;28;20355;-73
2022/02/12 11:41:44;;;;;;;3.60;1.73;;;;;;;5.38;53.12;99282.75;6220890;28;20224;-73
2022/02/12 11:44:48;;;;;;;3.13;1.40;;;;;;;5.20;53.39;99276.34;6230392;28;20228;-75
2022/02/12 11:48:18;;;;;;;1.67;1.10;;;;;;;5.12;53.09;99279.22;6230560;28;20242;-73
2022/02/12 11:51:30;;;;;;;1.50;1.20;;;;;;;5.16;53.51;99264.31;6229035;28;20238;-73
2022/02/12 11:54:45;;;;;;;2.67;1.37;;;;;;;5.12;51.20;99254.81;6229647;28;20228;-73
2022/02/12 11:57:47;;;;;;;1.67;0.97;;;;;;;5.08;51.46;99266.31;6228416;28;20234;-71
2022/02/12 12:00:49;;;;;;;2.83;1.10;;;;;;;5.10;52.79;99261.88;6205885;28;20236;-73
2022/02/12 12:04:11;;;;;;;1.83;1.37;;;;;;;5.12;52.31;99254.81;6217271;28;20228;-73
2022/02/12 12:07:14;;;;;;;1.37;1.13;;;;;;;5.07;51.44;99252.38;6205580;28;20334;-72
2022/02/12 12:10:16;;;;;;;3.00;1.20;;;;;;;5.17;51.98;99243.31;6204781;28;20463;-72
2022/02/12 12:13:25;;;;;;;1.67;1.00;;;;;;;5.25;51.77;99245.66;6193549;28;20346;-73
2022/02/12 12:16:32;;;;;;;1.30;0.90;;;;;;;5.33;50.48;99242.78;6206692;28;20235;-73
2022/02/12 12:19:51;;;;;;;1.83;1.10;;;;;;;5.51;48.61;99229.91;6219574;28;20679;-72
2022/02/12 12:23:00;;;;;;;2.93;1.40;;;;;;;5.74;48.43;99234.34;6203828;28;20293;-72
2022/02/12 12:26:06;;;;;;;2.33;1.30;;;;;;;5.95;47.23;99221.41;6204620;28;20604;-74
2022/02/12 12:32:34;;;;;;;1.70;1.30;;;;;;;6.08;47.79;99213.03;6243821;28;20236;-73
2022/02/12 12:35:37;;;;;;;2.60;1.50;;;;;;;6.02;47.65;99213.25;6228479;28;20341;-73
2022/02/12 12:38:50;;;;;;;2.53;1.70;;;;;;;6.03;46.93;99211.47;6228507;28;20731;-73
2022/02/12 12:41:54;;;;;;;2.43;1.80;;;;;;;5.63;47.71;99209.44;6208125;28;20310;-73
2022/02/12 12:44:59;;;;;;;3.73;1.60;;;;;;;5.72;48.47;99202.09;6222562;28;20231;-73
2022/02/12 12:48:01;;;;;;;3.17;1.80;;;;;;;6.00;48.44;99201.09;6228365;28;20240;-72
2022/02/12 12:51:03;;;;;;;3.97;1.90;;;;;;;6.90;47.39;99193.16;6228572;28;20240;-74
2022/02/12 12:54:05;;;;;;;6.93;2.00;;;;;;;7.39;45.91;99181.44;6228269;28;20221;-74
2022/02/12 12:57:11;;;;;;;2.90;1.83;;;;;;;7.44;46.02;99184.72;6227045;28;20216;-73
2022/02/12 13:00:17;;;;;;;2.00;1.80;;;;;;;8.12;45.85;99186.03;6226686;28;20220;-73
2022/02/12 13:03:23;;;;;;;3.90;2.33;;;;;;;8.51;44.16;99170.19;6228439;28;20219;-73
2022/02/12 13:06:28;;;;;;;2.47;2.20;;;;;;;8.52;43.13;99166.63;6227945;28;20541;-73
2022/02/12 13:09:33;;;;;;;2.93;2.20;;;;;;;9.00;42.63;99167.78;6227470;28;20237;-73
2022/02/12 13:12:37;;;;;;;3.37;2.40;;;;;;;9.13;41.70;99155.69;6212604;28;20597;-72
2022/02/12 13:15:41;;;;;;;2.93;2.37;;;;;;;9.11;41.08;99163.66;6224821;28;20309;-73
2022/02/12 13:18:43;;;;;;;4.33;2.23;;;;;;;8.83;41.70;99152.81;6228708;28;20290;-72
2022/02/12 13:21:48;;;;;;;4.27;2.50;;;;;;;9.33;42.12;99155.53;6228949;28;20364;-73
2022/02/12 13:24:53;;;;;;;3.53;2.00;;;;;;;10.44;39.58;99141.63;6227048;28;20663;-73
2022/02/12 13:28:00;;;;;;;2.60;2.17;;;;;;;11.78;37.46;99131.84;6226722;28;20235;-72
2022/02/12 13:31:08;;;;;;;2.43;2.17;;;;;;;11.56;35.19;99134.13;6225612;28;20644;-73
2022/02/12 13:34:10;;;;;;;2.30;2.10;;;;;;;12.17;36.86;99138.28;6226493;28;20231;-72
2022/02/12 13:37:12;;;;;;;3.80;1.90;;;;;;;14.29;31.67;99128.16;6227768;28;21724;-73
2022/02/12 13:40:18;;;;;;;2.40;1.93;;;;;;;13.68;32.16;99134.31;6219963;28;20240;-73
2022/02/12 13:43:23;;;;;;;3.30;2.30;;;;;;;13.89;33.09;99135.47;6211599;28;20249;-73
2022/02/12 13:46:27;;;;;;;3.30;2.20;;;;;;;14.95;30.47;99118.88;6217447;28;20239;-73
2022/02/12 13:49:29;;;;;;;2.90;2.50;;;;;;;14.58;29.87;99118.09;6226181;28;20246;-73
2022/02/12 13:52:31;;;;;;;4.17;2.90;;;;;;;13.51;31.54;99132.84;6227622;28;20235;-72
2022/02/12 13:56:00;;;;;;;3.97;2.37;;;;;;;12.71;32.36;99123.25;6225424;28;20245;-73
2022/02/12 13:59:02;;;;;;;2.73;2.23;;;;;;;11.87;34.43;99130.47;6228468;28;20227;-73
2022/02/12 14:02:05;;;;;;;4.13;2.23;;;;;;;11.33;35.42;99129.34;6229585;28;20645;-73
2022/02/12 14:05:07;;;;;;;2.57;2.17;;;;;;;9.94;38.46;99134.69;6231567;28;20259;-72
2022/02/12 14:08:13;;;;;;;2.83;2.20;;;;;;;8.35;40.80;99127.13;6224895;28;20286;-73
2022/02/12 14:11:16;;;;;;;2.73;2.10;;;;;;;7.22;43.73;99137.53;6209233;28;20749;-73
2022/02/12 14:14:18;;;;;;;3.37;2.37;;;;;;;6.24;45.83;99132.88;6215813;28;20234;-73
2022/02/12 14:17:20;;;;;;;2.67;2.00;;;;;;;5.94;47.05;99139.31;6215628;28;20728;-72
2022/02/12 14:20:22;;;;;;;3.23;2.00;;;;;;;5.75;47.66;99133.03;6225645;28;20227;-73
2022/02/12 14:23:25;;;;;;;2.83;1.90;;;;;;;5.57;48.08;99124.09;6225342;28;20598;-72
2022/02/12 14:26:27;;;;;;;2.70;2.10;;;;;;;5.47;47.75;99133.22;6226021;28;20227;-73
2022/02/12 14:29:29;;;;;;;4.33;2.60;;;;;;;5.28;47.81;99122.56;6210685;28;20224;-73
2022/02/12 14:32:34;;;;;;;3.07;2.10;;;;;;;5.18;48.74;99119.41;6208814;28;20310;-73
2022/02/12 14:35:38;;;;;;;2.87;2.13;;;;;;;5.15;49.32;99116.91;6225701;28;20235;-73
2022/02/12 14:38:41;;;;;;;3.07;2.30;;;;;;;5.07;49.31;99128.53;6225489;28;20675;-73
2022/02/12 14:41:43;;;;;;;4.17;2.30;;;;;;;4.97;50.09;99121.94;6223185;28;20231;-73
2022/02/12 14:44:45;;;;;;;3.57;1.90;;;;;;;4.90;49.69;99118.63;6225408;28;20265;-73